createdAt,value
2022-12-09T00:00:06.816Z,22.87
2022-12-09T00:05:10.099Z,19.83
2022-12-09T00:10:12.910Z,22.97
2022-12-09T00:15:15.521Z,21.67
2022-12-09T00:20:17.994Z,20.57
2022-12-09T00:25:20.354Z,15.10
2022-12-09T00:30:22.974Z,13.20
2022-12-09T00:35:25.449Z,11.50
2022-12-09T00:40:28.654Z,11.63
2022-12-09T00:45:31.223Z,11.77
2022-12-09T00:50:33.638Z,12.10
2022-12-09T00:55:36.114Z,10.93
2022-12-09T01:00:39.267Z,10.50
2022-12-09T01:05:42.876Z,10.63
2022-12-09T01:10:47.514Z,13.40
2022-12-09T01:15:50.126Z,11.50
2022-12-09T01:20:59.838Z,11.53
2022-12-09T01:26:07.381Z,12.67
2022-12-09T01:31:15.812Z,11.40
2022-12-09T01:36:22.285Z,11.13
2022-12-09T01:41:25.150Z,11.83
2022-12-09T01:46:27.705Z,12.63
2022-12-09T01:51:30.991Z,10.63
2022-12-09T01:56:36.143Z,12.30
2022-12-09T02:01:41.235Z,11.83
2022-12-09T02:06:44.184Z,12.77
2022-12-09T02:12:10.016Z,12.90
2022-12-09T02:17:35.384Z,10.90
2022-12-09T02:22:45.222Z,12.93
2022-12-09T02:28:05.709Z,12.80
2022-12-09T02:33:23.765Z,13.37
2022-12-09T02:38:28.956Z,16.00
2022-12-09T02:43:37.471Z,16.53
2022-12-09T02:48:45.854Z,16.63
2022-12-09T02:53:54.169Z,14.37
2022-12-09T02:58:57.495Z,15.87
2022-12-09T03:04:03.909Z,18.83
2022-12-09T03:09:13.868Z,17.60
2022-12-09T03:14:24.132Z,16.43
2022-12-09T03:19:36.887Z,19.40
2022-12-09T03:24:47.346Z,15.53
2022-12-09T03:29:51.028Z,17.03
2022-12-09T03:35:01.720Z,15.20
2022-12-09T03:40:13.659Z,15.20
2022-12-09T03:45:19.744Z,15.87
2022-12-09T03:50:25.162Z,14.97
2022-12-09T03:55:39.109Z,15.93
2022-12-09T04:00:41.755Z,15.23
2022-12-09T04:05:44.553Z,15.67
2022-12-09T04:10:47.044Z,13.77
2022-12-09T04:15:49.780Z,14.53
2022-12-09T04:20:52.391Z,16.57
2022-12-09T04:25:54.856Z,15.70
2022-12-09T04:30:58.088Z,16.00
2022-12-09T04:36:08.714Z,14.90
2022-12-09T04:41:12.570Z,13.73
2022-12-09T04:46:18.243Z,12.73
2022-12-09T04:51:21.109Z,15.67
2022-12-09T04:56:23.786Z,16.03
2022-12-09T05:01:30.568Z,15.10
2022-12-09T05:06:34.587Z,14.10
2022-12-09T05:11:37.610Z,16.30
2022-12-09T05:16:40.625Z,17.33
2022-12-09T05:21:44.067Z,17.27
2022-12-09T05:26:47.353Z,15.40
2022-12-09T05:31:51.731Z,16.17
2022-12-09T05:36:54.831Z,16.87
2022-12-09T05:41:57.641Z,16.50
2022-12-09T05:47:00.241Z,16.73
2022-12-09T05:52:03.292Z,17.60
2022-12-09T05:57:06.557Z,18.07
2022-12-09T06:02:10.419Z,17.07
2022-12-09T06:07:13.535Z,17.90
2022-12-09T06:12:16.963Z,17.90
2022-12-09T06:17:20.791Z,17.13
2022-12-09T06:22:23.576Z,18.73
2022-12-09T06:27:26.432Z,22.60
2022-12-09T06:32:30.813Z,30.47
2022-12-09T06:37:33.834Z,29.53
2022-12-09T06:42:38.278Z,22.33
2022-12-09T06:47:41.340Z,16.80
2022-12-09T06:52:44.200Z,15.70
2022-12-09T06:57:47.459Z,15.50
2022-12-09T07:02:50.392Z,29.13
2022-12-09T07:07:53.328Z,20.10
2022-12-09T07:12:56.301Z,17.93
2022-12-09T07:17:58.836Z,18.00
2022-12-09T07:23:01.751Z,19.57
2022-12-09T07:28:04.337Z,17.20
2022-12-09T07:33:07.120Z,18.50
2022-12-09T07:38:09.782Z,11.43
2022-12-09T07:43:12.274Z,15.87
2022-12-09T07:48:15.182Z,18.23
2022-12-09T07:53:17.719Z,19.17
2022-12-09T07:58:20.393Z,18.70
2022-12-09T08:03:23.092Z,17.50
2022-12-09T08:08:25.876Z,16.10
2022-12-09T08:13:29.192Z,15.67
2022-12-09T08:18:33.361Z,11.73
2022-12-09T08:23:36.669Z,14.23
2022-12-09T08:28:39.607Z,14.57
2022-12-09T08:33:42.758Z,15.20
2022-12-09T08:38:46.323Z,13.53
2022-12-09T08:43:49.288Z,15.10
2022-12-09T08:48:52.016Z,15.80
2022-12-09T08:53:54.734Z,15.77
2022-12-09T08:58:57.958Z,14.43
2022-12-09T09:04:02.756Z,14.53
2022-12-09T09:09:07.792Z,14.27
2022-12-09T09:14:12.481Z,14.20
2022-12-09T09:19:17.796Z,15.17
2022-12-09T09:24:23.704Z,14.03
2022-12-09T09:29:26.386Z,12.70
2022-12-09T09:34:29.223Z,13.83
2022-12-09T09:39:32.260Z,12.53
2022-12-09T09:44:40.125Z,11.50
2022-12-09T09:49:58.763Z,11.03
2022-12-09T09:55:24.042Z,13.40
2022-12-09T10:00:37.368Z,11.53
2022-12-09T10:06:11.651Z,13.30
2022-12-09T10:11:27.079Z,13.77
2022-12-09T10:16:35.866Z,11.70
2022-12-09T10:21:44.572Z,15.77
2022-12-09T10:27:12.581Z,15.33
2022-12-09T10:32:19.589Z,15.90
2022-12-09T10:37:32.937Z,15.90
2022-12-09T10:43:09.428Z,14.70
2022-12-09T10:48:40.321Z,19.33
2022-12-09T10:54:08.323Z,23.03
2022-12-09T10:59:25.772Z,24.87
2022-12-09T11:04:34.005Z,24.90
2022-12-09T11:09:40.468Z,22.70
2022-12-09T11:14:56.949Z,27.93
2022-12-09T11:20:05.786Z,26.87
2022-12-09T11:25:15.906Z,25.13
2022-12-09T11:30:22.485Z,15.77
2022-12-09T11:35:40.019Z,29.00
2022-12-09T11:40:43.668Z,27.83
2022-12-09T11:45:46.152Z,30.87
2022-12-09T11:50:51.825Z,31.20
2022-12-09T11:56:16.673Z,29.27
2022-12-09T12:01:37.242Z,29.40
2022-12-09T12:06:50.793Z,30.13
2022-12-09T12:12:07.263Z,33.93
2022-12-09T12:17:25.877Z,26.80
2022-12-09T12:22:51.527Z,27.40
2022-12-09T12:27:59.935Z,31.50
2022-12-09T12:39:21.045Z,29.80
2022-12-09T12:45:17.852Z,27.03
2022-12-09T12:50:28.566Z,28.07
2022-12-09T12:55:42.730Z,29.73
2022-12-09T13:01:04.567Z,25.80
2022-12-09T13:06:12.430Z,25.97
2022-12-09T13:11:19.996Z,27.13
2022-12-09T13:16:30.355Z,25.00
2022-12-09T13:21:32.942Z,25.83
2022-12-09T13:26:53.876Z,26.90
2022-12-09T13:43:04.037Z,23.77
2022-12-09T13:48:14.830Z,26.23
2022-12-09T13:53:19.150Z,13.50
2022-12-09T13:58:49.173Z,15.57
2022-12-09T14:04:10.313Z,16.57
2022-12-09T14:09:18.933Z,15.83
2022-12-09T14:14:25.494Z,13.77
2022-12-09T14:19:29.428Z,15.43
2022-12-09T14:24:32.508Z,13.23
2022-12-09T14:29:48.863Z,15.73
2022-12-09T14:35:04.477Z,18.30
2022-12-09T14:40:15.875Z,24.67
2022-12-09T14:45:57.891Z,20.57
2022-12-09T14:51:34.752Z,24.03
2022-12-09T14:56:37.962Z,17.33
2022-12-09T15:01:53.052Z,21.80
2022-12-09T15:07:11.892Z,21.23
2022-12-09T15:12:14.299Z,40.07
2022-12-09T15:17:27.534Z,45.37
2022-12-09T15:22:32.552Z,31.60
2022-12-09T15:27:34.987Z,28.03
2022-12-09T15:32:40.474Z,29.13
2022-12-09T15:37:43.426Z,26.57
2022-12-09T15:42:50.403Z,34.33
2022-12-09T15:48:11.258Z,29.30
2022-12-09T15:53:45.014Z,20.83
2022-12-09T15:58:54.595Z,18.70
2022-12-09T16:03:59.529Z,21.87
2022-12-09T16:09:02.836Z,18.23
2022-12-09T16:14:05.558Z,17.20
2022-12-09T16:19:25.362Z,17.87
2022-12-09T16:24:44.545Z,18.03
2022-12-09T16:29:54.009Z,18.30
2022-12-09T16:34:59.479Z,17.13
2022-12-09T16:40:21.036Z,19.67
2022-12-09T16:45:34.114Z,16.20
2022-12-09T16:50:43.043Z,20.30
2022-12-09T16:55:54.072Z,19.73
2022-12-09T17:00:57.953Z,17.30
2022-12-09T17:06:01.067Z,16.00
2022-12-09T17:11:03.547Z,16.40
2022-12-09T17:16:07.243Z,15.40
2022-12-09T17:21:12.472Z,13.23
2022-12-09T17:26:17.598Z,15.13
2022-12-09T17:31:23.210Z,12.60
2022-12-09T17:36:25.675Z,15.30
2022-12-09T17:41:28.068Z,15.50
2022-12-09T17:46:30.698Z,15.83
2022-12-09T17:51:36.291Z,14.60
2022-12-09T17:56:39.263Z,16.63
2022-12-09T18:01:43.978Z,16.50
2022-12-09T18:06:46.937Z,14.33
2022-12-09T18:11:51.666Z,14.70
2022-12-09T18:16:54.271Z,15.67
2022-12-09T18:21:57.209Z,17.43
2022-12-09T18:27:00.264Z,16.70
2022-12-09T18:32:02.766Z,17.67
2022-12-09T18:37:05.282Z,19.07
2022-12-09T18:42:08.730Z,19.47
2022-12-09T18:47:11.095Z,18.83
2022-12-09T18:52:13.518Z,18.90
2022-12-09T18:57:15.960Z,14.47
2022-12-09T19:02:18.681Z,28.93
2022-12-09T19:07:21.077Z,20.53
2022-12-09T19:12:46.394Z,21.23
2022-12-09T19:17:47.232Z,17.07
2022-12-09T19:22:49.557Z,17.77
2022-12-09T19:27:52.102Z,23.87
2022-12-09T19:32:54.446Z,22.77
2022-12-09T19:38:01.218Z,22.70
2022-12-09T19:43:04.150Z,22.07
2022-12-09T19:48:07.134Z,22.60
2022-12-09T19:53:09.582Z,24.83
2022-12-09T19:58:13.006Z,25.00
2022-12-09T20:03:15.443Z,26.57
2022-12-09T20:08:18.333Z,22.57
2022-12-09T20:13:20.834Z,28.77
2022-12-09T20:18:23.251Z,29.50
2022-12-09T20:23:25.658Z,32.43
2022-12-09T20:28:30.411Z,29.67
2022-12-09T20:33:33.414Z,28.47
2022-12-09T20:38:36.211Z,32.90
2022-12-09T20:43:45.438Z,34.70
2022-12-09T20:48:48.421Z,29.43
2022-12-09T20:53:51.469Z,30.57
2022-12-09T20:58:54.990Z,31.03
2022-12-09T21:03:59.132Z,27.87
2022-12-09T21:09:04.175Z,32.23
2022-12-09T21:14:07.668Z,33.37
2022-12-09T21:19:15.258Z,35.77
2022-12-09T21:24:18.825Z,33.50
2022-12-09T21:29:21.506Z,34.93
2022-12-09T21:34:25.269Z,31.70
2022-12-09T21:39:28.320Z,30.13
2022-12-09T21:44:30.724Z,35.87
2022-12-09T21:49:33.525Z,27.27
2022-12-09T21:54:36.302Z,35.33
2022-12-09T21:59:38.653Z,35.10
2022-12-09T22:04:41.560Z,34.57
2022-12-09T22:09:44.115Z,23.57
2022-12-09T22:14:46.564Z,39.90
2022-12-09T22:20:01.114Z,25.37
2022-12-09T22:25:11.668Z,33.37
2022-12-09T22:30:14.265Z,29.87
2022-12-09T22:35:16.629Z,40.37
2022-12-09T22:40:19.997Z,38.67
2022-12-09T22:45:22.382Z,38.37
2022-12-09T22:50:24.822Z,38.80
2022-12-09T22:55:27.232Z,36.87
2022-12-09T23:00:29.761Z,36.20
2022-12-09T23:05:36.839Z,36.90
2022-12-09T23:10:39.848Z,35.10
2022-12-09T23:15:42.363Z,37.00
2022-12-09T23:20:44.863Z,34.63
2022-12-09T23:25:47.314Z,38.73
2022-12-09T23:30:49.663Z,37.50
2022-12-09T23:35:52.133Z,36.70
2022-12-09T23:40:54.575Z,34.43
2022-12-09T23:46:04.140Z,35.70
2022-12-09T23:51:13.888Z,37.87
2022-12-09T23:56:21.685Z,35.50
